createdAt,value
2019-03-22T00:04:04.242Z,31.76
2019-03-22T00:09:12.009Z,34.09
2019-03-22T00:14:19.619Z,34.60
2019-03-22T00:19:27.381Z,34.32
2019-03-22T00:24:35.081Z,36.33
2019-03-22T00:29:42.909Z,36.92
2019-03-22T00:34:50.587Z,34.44
2019-03-22T00:39:58.416Z,36.62
2019-03-22T00:45:06.014Z,35.38
2019-03-22T00:50:13.848Z,37.53
2019-03-22T00:55:21.458Z,37.05
2019-03-22T01:00:29.201Z,35.75
2019-03-22T01:05:37.210Z,40.57
2019-03-22T01:10:44.854Z,38.16
2019-03-22T01:15:52.699Z,38.88
2019-03-22T01:21:00.299Z,40.14
2019-03-22T01:26:08.110Z,38.32
2019-03-22T01:31:16.517Z,39.91
2019-03-22T01:36:24.225Z,41.77
2019-03-22T01:41:31.893Z,42.11
2019-03-22T01:46:39.701Z,40.83
2019-03-22T01:51:47.303Z,43.71
2019-03-22T01:56:55.020Z,42.43
2019-03-22T02:02:02.665Z,40.92
2019-03-22T02:07:10.253Z,43.95
2019-03-22T02:12:17.953Z,42.31
2019-03-22T02:17:25.709Z,45.80
2019-03-22T02:22:33.516Z,44.60
2019-03-22T02:27:41.272Z,42.49
2019-03-22T02:33:27.606Z,49.96
2019-03-22T02:38:35.307Z,47.06
2019-03-22T02:43:43.179Z,49.28
2019-03-22T02:48:50.794Z,51.14
2019-03-22T02:53:58.784Z,53.61
2019-03-22T02:59:06.470Z,54.51
2019-03-22T03:04:14.274Z,55.35
2019-03-22T03:09:21.899Z,55.80
2019-03-22T03:14:29.658Z,56.07
2019-03-22T03:19:37.288Z,57.08
2019-03-22T03:24:45.057Z,55.41
2019-03-22T03:29:52.671Z,56.95
2019-03-22T03:35:00.923Z,63.15
2019-03-22T03:40:07.744Z,57.69
2019-03-22T03:45:15.429Z,63.01
2019-03-22T03:50:23.029Z,71.13
2019-03-22T03:55:30.676Z,69.76
2019-03-22T04:00:38.369Z,66.60
2019-03-22T04:05:46.032Z,86.72
2019-03-22T04:10:53.732Z,83.96
2019-03-22T04:16:01.471Z,76.13
2019-03-22T04:21:09.599Z,81.96
2019-03-22T04:26:17.338Z,89.35
2019-03-22T04:31:25.258Z,94.35
2019-03-22T04:36:33.085Z,80.65
2019-03-22T04:41:40.754Z,71.33
2019-03-22T04:46:49.844Z,71.27
2019-03-22T04:51:55.667Z,73.78
2019-03-22T04:57:03.370Z,68.83
2019-03-22T05:02:10.977Z,73.46
2019-03-22T05:07:18.761Z,66.32
2019-03-22T05:12:26.401Z,72.22
2019-03-22T05:17:34.501Z,74.31
2019-03-22T05:22:42.090Z,75.80
2019-03-22T05:27:49.785Z,72.24
2019-03-22T05:32:57.433Z,80.40
2019-03-22T05:38:05.294Z,76.41
2019-03-22T05:44:15.231Z,86.55
2019-03-22T05:49:22.961Z,78.57
2019-03-22T05:54:30.659Z,77.85
2019-03-22T05:59:42.696Z,88.92
2019-03-22T06:04:45.977Z,87.29
2019-03-22T06:09:54.544Z,93.20
2019-03-22T06:15:02.273Z,85.97
2019-03-22T06:20:10.201Z,85.77
2019-03-22T06:25:18.927Z,83.27
2019-03-22T06:30:26.665Z,79.00
2019-03-22T06:35:34.264Z,85.48
2019-03-22T06:40:41.965Z,84.33
2019-03-22T06:45:49.553Z,81.33
2019-03-22T06:50:57.233Z,86.16
2019-03-22T06:56:04.903Z,81.16
2019-03-22T07:01:12.714Z,84.91
2019-03-22T07:06:20.481Z,81.11
2019-03-22T07:11:28.143Z,83.60
2019-03-22T07:16:35.730Z,87.29
2019-03-22T07:21:43.473Z,87.73
2019-03-22T07:26:51.177Z,82.18
2019-03-22T07:31:58.917Z,82.61
2019-03-22T07:37:06.670Z,85.30
2019-03-22T07:42:14.436Z,87.30
2019-03-22T07:47:22.216Z,82.47
2019-03-22T07:52:31.035Z,82.55
2019-03-22T07:57:38.805Z,83.88
2019-03-22T08:02:46.648Z,84.48
2019-03-22T08:07:56.132Z,87.99
2019-03-22T08:13:01.764Z,81.06
2019-03-22T08:18:09.553Z,86.16
2019-03-22T08:23:17.262Z,79.61
2019-03-22T08:28:24.990Z,78.55
2019-03-22T08:33:32.934Z,78.26
2019-03-22T08:38:40.627Z,72.77
2019-03-22T08:43:48.366Z,70.41
2019-03-22T08:48:56.153Z,70.45
2019-03-22T08:54:03.746Z,66.36
2019-03-22T08:59:13.362Z,64.93
2019-03-22T09:04:18.806Z,68.50
2019-03-22T09:09:26.575Z,67.17
2019-03-22T09:14:34.225Z,61.42
2019-03-22T09:19:41.998Z,61.34
2019-03-22T09:24:49.703Z,56.84
2019-03-22T09:29:57.542Z,60.09
2019-03-22T09:35:05.408Z,54.87
2019-03-22T09:40:13.085Z,54.47
2019-03-22T09:45:20.850Z,53.41
2019-03-22T09:50:28.570Z,56.48
2019-03-22T09:55:36.361Z,53.00
2019-03-22T10:00:44.138Z,51.61
2019-03-22T10:05:51.818Z,50.92
2019-03-22T10:10:59.447Z,47.36
2019-03-22T10:16:07.325Z,48.24
2019-03-22T10:21:22.365Z,48.00
2019-03-22T10:26:22.200Z,44.42
2019-03-22T10:31:37.116Z,44.24
2019-03-22T10:36:37.817Z,41.65
2019-03-22T10:41:45.523Z,43.56
2019-03-22T10:46:53.165Z,46.80
2019-03-22T10:52:00.810Z,43.89
2019-03-22T10:57:08.539Z,43.54
2019-03-22T11:02:16.225Z,42.28
2019-03-22T11:07:23.841Z,41.73
2019-03-22T11:12:31.476Z,41.48
2019-03-22T11:17:39.201Z,43.99
2019-03-22T11:22:46.836Z,40.77
2019-03-22T11:27:54.462Z,41.41
2019-03-22T11:33:02.058Z,39.07
2019-03-22T11:38:09.753Z,36.94
2019-03-22T11:43:17.515Z,38.57
2019-03-22T11:48:25.216Z,39.78
2019-03-22T11:53:32.814Z,36.61
2019-03-22T11:58:40.481Z,35.75
2019-03-22T12:03:48.057Z,33.73
2019-03-22T12:08:55.770Z,30.81
2019-03-22T12:14:03.445Z,30.59
2019-03-22T12:19:11.066Z,52.50
2019-03-22T12:24:18.778Z,28.50
2019-03-22T12:29:26.312Z,52.41
2019-03-22T12:34:33.941Z,27.23
2019-03-22T12:39:42.011Z,28.04
2019-03-22T12:44:48.765Z,26.59
2019-03-22T12:49:56.456Z,27.15
2019-03-22T12:55:04.065Z,24.61
2019-03-22T13:00:11.876Z,23.63
2019-03-22T13:05:19.573Z,23.25
2019-03-22T13:10:27.261Z,21.83
2019-03-22T13:15:34.957Z,17.54
2019-03-22T13:20:42.581Z,16.44
2019-03-22T13:25:50.445Z,21.56
2019-03-22T13:30:58.082Z,15.34
2019-03-22T13:36:05.793Z,15.86
2019-03-22T13:41:13.413Z,13.44
2019-03-22T13:46:21.307Z,14.19
2019-03-22T13:51:29.012Z,12.46
2019-03-22T13:56:36.746Z,14.31
2019-03-22T14:01:44.381Z,12.81
2019-03-22T14:06:52.077Z,12.02
2019-03-22T14:11:59.724Z,12.48
2019-03-22T14:17:07.627Z,11.23
2019-03-22T14:22:15.309Z,11.49
2019-03-22T14:27:23.008Z,11.33
2019-03-22T14:32:30.701Z,9.08
2019-03-22T14:37:38.785Z,9.90
2019-03-22T14:42:46.383Z,11.58
2019-03-22T14:47:54.184Z,11.10
2019-03-22T14:53:01.842Z,12.79
2019-03-22T14:58:09.587Z,13.26
2019-03-22T15:03:22.528Z,14.06
2019-03-22T15:08:25.010Z,13.83
2019-03-22T15:13:32.745Z,13.70
2019-03-22T15:18:40.593Z,12.60
2019-03-22T15:23:48.275Z,12.27
2019-03-22T15:28:56.350Z,12.26
2019-03-22T15:34:04.834Z,10.04
2019-03-22T15:39:11.448Z,11.16
2019-03-22T15:44:19.035Z,12.11
2019-03-22T15:49:26.606Z,12.10
2019-03-22T15:54:34.249Z,12.37
2019-03-22T15:59:42.050Z,11.67
2019-03-22T16:04:49.773Z,13.86
2019-03-22T16:09:57.533Z,14.76
2019-03-22T16:15:06.121Z,13.91
2019-03-22T16:20:13.902Z,14.19
2019-03-22T16:25:21.549Z,17.89
2019-03-22T16:30:29.319Z,15.78
2019-03-22T16:35:37.069Z,16.62
2019-03-22T16:40:44.826Z,16.10
2019-03-22T16:45:52.462Z,18.14
2019-03-22T16:51:00.148Z,17.19
2019-03-22T16:56:07.794Z,16.10
2019-03-22T17:01:15.449Z,17.09
2019-03-22T17:06:23.235Z,16.98
2019-03-22T17:11:31.028Z,15.45
2019-03-22T17:16:38.779Z,16.45
2019-03-22T17:21:46.528Z,16.49
2019-03-22T17:26:53.976Z,16.41
2019-03-22T17:32:01.721Z,16.57
2019-03-22T17:37:09.334Z,17.35
2019-03-22T17:42:17.158Z,16.99
2019-03-22T17:47:24.881Z,15.00
2019-03-22T17:52:32.654Z,15.80
2019-03-22T17:57:40.373Z,15.27
2019-03-22T18:02:48.205Z,16.41
2019-03-22T18:07:55.808Z,14.86
2019-03-22T18:13:03.571Z,15.04
2019-03-22T18:18:11.284Z,15.64
2019-03-22T18:23:19.042Z,15.67
2019-03-22T18:28:26.721Z,15.60
2019-03-22T18:33:35.174Z,16.08
2019-03-22T18:38:42.814Z,15.09
2019-03-22T18:43:50.587Z,17.23
2019-03-22T18:48:58.260Z,15.33
2019-03-22T18:54:06.014Z,16.46
2019-03-22T18:59:13.668Z,16.91
2019-03-22T19:04:21.281Z,15.42
2019-03-22T19:09:29.085Z,15.64
2019-03-22T19:14:36.845Z,16.21
2019-03-22T19:19:44.877Z,15.98
2019-03-22T19:24:52.656Z,15.38
2019-03-22T19:30:00.403Z,16.39
2019-03-22T19:35:08.015Z,16.81
2019-03-22T19:40:15.899Z,18.85
2019-03-22T19:45:23.560Z,17.66
2019-03-22T19:50:31.378Z,17.82
2019-03-22T19:55:38.965Z,18.47
2019-03-22T20:00:46.595Z,18.53
2019-03-22T20:05:54.313Z,17.73
2019-03-22T20:11:02.929Z,18.90
2019-03-22T20:16:10.538Z,17.87
2019-03-22T20:21:18.310Z,19.14
2019-03-22T20:26:25.929Z,20.10
2019-03-22T20:31:33.668Z,21.33
2019-03-22T20:36:43.639Z,20.17
2019-03-22T20:41:48.704Z,21.95
2019-03-22T20:46:56.285Z,20.85
2019-03-22T20:52:03.873Z,21.01
2019-03-22T20:57:11.764Z,20.64
2019-03-22T21:02:19.488Z,20.01
2019-03-22T21:07:27.270Z,20.19
2019-03-22T21:12:35.085Z,19.97
2019-03-22T21:17:42.817Z,18.86
2019-03-22T21:22:50.417Z,21.11
2019-03-22T21:27:58.101Z,36.15
2019-03-22T21:33:05.801Z,19.46
2019-03-22T21:38:15.602Z,20.10
2019-03-22T21:43:22.068Z,19.71
2019-03-22T21:48:28.202Z,19.17
2019-03-22T21:53:35.894Z,18.57
2019-03-22T21:58:43.470Z,18.95
2019-03-22T22:03:51.284Z,19.66
2019-03-22T22:08:58.874Z,20.72
2019-03-22T22:14:06.522Z,20.33
2019-03-22T22:19:14.217Z,20.13
2019-03-22T22:24:21.866Z,21.09
2019-03-22T22:29:29.481Z,20.30
2019-03-22T22:34:37.201Z,21.73
2019-03-22T22:39:44.889Z,21.96
2019-03-22T22:44:52.729Z,21.03
2019-03-22T22:50:00.488Z,22.42
2019-03-22T22:55:08.311Z,21.62
2019-03-22T23:00:15.994Z,21.74
2019-03-22T23:05:23.771Z,20.80
2019-03-22T23:10:31.394Z,22.16
2019-03-22T23:15:39.047Z,21.92
2019-03-22T23:20:46.642Z,24.47
2019-03-22T23:25:54.341Z,30.32
2019-03-22T23:31:01.993Z,39.77
2019-03-22T23:36:19.531Z,47.58
2019-03-22T23:41:16.957Z,56.13
2019-03-22T23:46:24.689Z,57.63
2019-03-22T23:51:32.372Z,58.40
2019-03-22T23:56:40.166Z,64.83
